sensor_id;sensor_type;location;lat;lon;timestamp;temperature;humidity
34646;DHT22;20857;47.808;12.482;2024-02-28T00:01:23;2.80;99.90
34646;DHT22;20857;47.808;12.482;2024-02-28T00:03:48;2.70;99.90
34646;DHT22;20857;47.808;12.482;2024-02-28T00:06:16;2.70;99.90
34646;DHT22;20857;47.808;12.482;2024-02-28T00:08:42;2.70;99.90
34646;DHT22;20857;47.808;12.482;2024-02-28T00:11:07;2.80;99.90
34646;DHT22;20857;47.808;12.482;2024-02-28T00:13:33;2.80;99.90
34646;DHT22;20857;47.808;12.482;2024-02-28T00:15:59;2.70;99.90
34646;DHT22;20857;47.808;12.482;2024-02-28T00:18:24;2.80;99.90
34646;DHT22;20857;47.808;12.482;2024-02-28T00:20:50;2.70;99.90
34646;DHT22;20857;47.808;12.482;2024-02-28T00:23:15;2.70;99.90
34646;DHT22;20857;47.808;12.482;2024-02-28T00:25:41;2.70;99.90
34646;DHT22;20857;47.808;12.482;2024-02-28T00:28:06;2.80;99.90
34646;DHT22;20857;47.808;12.482;2024-02-28T00:30:32;2.80;99.90
34646;DHT22;20857;47.808;12.482;2024-02-28T00:32:59;2.80;99.90
34646;DHT22;20857;47.808;12.482;2024-02-28T00:35:24;2.90;99.90
34646;DHT22;20857;47.808;12.482;2024-02-28T00:37:50;2.90;99.90
34646;DHT22;20857;47.808;12.482;2024-02-28T00:40:16;2.90;99.90
34646;DHT22;20857;47.808;12.482;2024-02-28T00:42:41;3.00;99.90
34646;DHT22;20857;47.808;12.482;2024-02-28T00:45:08;3.00;99.90
34646;DHT22;20857;47.808;12.482;2024-02-28T00:47:35;2.80;99.90
34646;DHT22;20857;47.808;12.482;2024-02-28T00:50:00;2.90;99.90
34646;DHT22;20857;47.808;12.482;2024-02-28T00:52:28;2.90;99.90
34646;DHT22;20857;47.808;12.482;2024-02-28T00:54:54;2.90;99.90
34646;DHT22;20857;47.808;12.482;2024-02-28T00:57:19;2.80;99.90
34646;DHT22;20857;47.808;12.482;2024-02-28T00:59:45;2.80;99.90
34646;DHT22;20857;47.808;12.482;2024-02-28T01:02:11;2.80;99.90
34646;DHT22;20857;47.808;12.482;2024-02-28T01:04:36;2.80;99.90
34646;DHT22;20857;47.808;12.482;2024-02-28T01:07:02;2.80;99.90
34646;DHT22;20857;47.808;12.482;2024-02-28T01:09:28;2.80;99.90
34646;DHT22;20857;47.808;12.482;2024-02-28T01:11:54;2.90;99.90
34646;DHT22;20857;47.808;12.482;2024-02-28T01:14:20;2.90;99.90
34646;DHT22;20857;47.808;12.482;2024-02-28T01:16:45;2.90;99.90
34646;DHT22;20857;47.808;12.482;2024-02-28T01:19:11;2.90;99.90
34646;DHT22;20857;47.808;12.482;2024-02-28T01:21:38;3.00;99.90
34646;DHT22;20857;47.808;12.482;2024-02-28T01:24:03;2.90;99.90
34646;DHT22;20857;47.808;12.482;2024-02-28T01:26:29;2.90;99.90
34646;DHT22;20857;47.808;12.482;2024-02-28T01:28:55;2.90;99.90
34646;DHT22;20857;47.808;12.482;2024-02-28T01:31:20;2.90;99.90
34646;DHT22;20857;47.808;12.482;2024-02-28T01:33:46;2.90;99.90
34646;DHT22;20857;47.808;12.482;2024-02-28T01:36:11;2.90;99.90
34646;DHT22;20857;47.808;12.482;2024-02-28T01:38:37;3.00;99.90
34646;DHT22;20857;47.808;12.482;2024-02-28T01:41:03;3.10;99.90
34646;DHT22;20857;47.808;12.482;2024-02-28T01:43:31;2.90;99.90
34646;DHT22;20857;47.808;12.482;2024-02-28T01:45:58;3.00;99.90
34646;DHT22;20857;47.808;12.482;2024-02-28T01:48:25;3.00;99.90
34646;DHT22;20857;47.808;12.482;2024-02-28T01:50:50;3.10;99.90
34646;DHT22;20857;47.808;12.482;2024-02-28T01:53:16;3.10;99.90
34646;DHT22;20857;47.808;12.482;2024-02-28T01:55:42;3.10;99.90
34646;DHT22;20857;47.808;12.482;2024-02-28T01:58:07;3.20;99.90
34646;DHT22;20857;47.808;12.482;2024-02-28T02:00:33;3.20;99.90
34646;DHT22;20857;47.808;12.482;2024-02-28T02:03:00;3.30;99.90
34646;DHT22;20857;47.808;12.482;2024-02-28T02:05:26;3.40;99.90
34646;DHT22;20857;47.808;12.482;2024-02-28T02:07:52;3.40;99.90
34646;DHT22;20857;47.808;12.482;2024-02-28T02:10:18;3.50;99.90
34646;DHT22;20857;47.808;12.482;2024-02-28T02:12:44;3.50;99.90
34646;DHT22;20857;47.808;12.482;2024-02-28T02:15:10;3.60;99.90
34646;DHT22;20857;47.808;12.482;2024-02-28T02:17:35;3.60;99.90
34646;DHT22;20857;47.808;12.482;2024-02-28T02:20:01;3.70;99.90
34646;DHT22;20857;47.808;12.482;2024-02-28T02:22:32;3.70;99.90
34646;DHT22;20857;47.808;12.482;2024-02-28T02:24:58;3.80;99.90
34646;DHT22;20857;47.808;12.482;2024-02-28T02:27:24;3.80;99.90
34646;DHT22;20857;47.808;12.482;2024-02-28T02:29:51;3.80;99.90
34646;DHT22;20857;47.808;12.482;2024-02-28T02:32:16;3.80;99.90
34646;DHT22;20857;47.808;12.482;2024-02-28T02:34:42;3.80;99.90
34646;DHT22;20857;47.808;12.482;2024-02-28T02:37:08;3.70;99.90
34646;DHT22;20857;47.808;12.482;2024-02-28T02:39:34;3.70;99.90
34646;DHT22;20857;47.808;12.482;2024-02-28T02:42:00;3.70;99.90
34646;DHT22;20857;47.808;12.482;2024-02-28T02:44:25;3.50;99.90
34646;DHT22;20857;47.808;12.482;2024-02-28T02:46:51;3.30;99.90
34646;DHT22;20857;47.808;12.482;2024-02-28T02:49:16;3.10;99.90
34646;DHT22;20857;47.808;12.482;2024-02-28T02:51:44;3.10;99.90
34646;DHT22;20857;47.808;12.482;2024-02-28T02:54:10;3.00;99.90
34646;DHT22;20857;47.808;12.482;2024-02-28T02:56:36;3.00;99.90
34646;DHT22;20857;47.808;12.482;2024-02-28T02:59:02;3.10;99.90
34646;DHT22;20857;47.808;12.482;2024-02-28T03:01:28;3.20;99.90
34646;DHT22;20857;47.808;12.482;2024-02-28T03:03:53;3.20;99.90
34646;DHT22;20857;47.808;12.482;2024-02-28T03:06:19;3.30;99.90
34646;DHT22;20857;47.808;12.482;2024-02-28T03:08:45;3.30;99.90
34646;DHT22;20857;47.808;12.482;2024-02-28T03:11:10;3.40;99.90
34646;DHT22;20857;47.808;12.482;2024-02-28T03:13:36;3.50;99.90
34646;DHT22;20857;47.808;12.482;2024-02-28T03:16:06;3.70;99.90
34646;DHT22;20857;47.808;12.482;2024-02-28T03:18:31;3.70;99.90
34646;DHT22;20857;47.808;12.482;2024-02-28T03:20:57;3.90;99.90
34646;DHT22;20857;47.808;12.482;2024-02-28T03:23:23;4.00;99.90
34646;DHT22;20857;47.808;12.482;2024-02-28T03:25:49;4.00;99.90
34646;DHT22;20857;47.808;12.482;2024-02-28T03:28:14;4.00;99.90
34646;DHT22;20857;47.808;12.482;2024-02-28T03:30:40;4.00;99.90
34646;DHT22;20857;47.808;12.482;2024-02-28T03:33:05;4.00;99.90
34646;DHT22;20857;47.808;12.482;2024-02-28T03:35:31;4.30;99.90
34646;DHT22;20857;47.808;12.482;2024-02-28T03:37:56;4.10;99.90
34646;DHT22;20857;47.808;12.482;2024-02-28T03:40:22;4.10;99.90
34646;DHT22;20857;47.808;12.482;2024-02-28T03:42:48;4.10;99.90
34646;DHT22;20857;47.808;12.482;2024-02-28T03:45:13;4.10;99.90
34646;DHT22;20857;47.808;12.482;2024-02-28T03:47:39;4.10;99.90
34646;DHT22;20857;47.808;12.482;2024-02-28T03:50:05;4.10;99.90
34646;DHT22;20857;47.808;12.482;2024-02-28T03:52:30;4.00;99.90
34646;DHT22;20857;47.808;12.482;2024-02-28T03:54:56;4.00;99.90
34646;DHT22;20857;47.808;12.482;2024-02-28T03:57:22;4.10;99.90
34646;DHT22;20857;47.808;12.482;2024-02-28T03:59:48;4.00;99.90
34646;DHT22;20857;47.808;12.482;2024-02-28T04:02:13;4.00;99.90
34646;DHT22;20857;47.808;12.482;2024-02-28T04:04:39;4.10;99.90
34646;DHT22;20857;47.808;12.482;2024-02-28T04:07:05;3.90;99.90
34646;DHT22;20857;47.808;12.482;2024-02-28T04:09:31;4.00;99.90
34646;DHT22;20857;47.808;12.482;2024-02-28T04:11:56;3.90;99.90
34646;DHT22;20857;47.808;12.482;2024-02-28T04:14:22;3.90;99.90
34646;DHT22;20857;47.808;12.482;2024-02-28T04:16:48;3.90;99.90
34646;DHT22;20857;47.808;12.482;2024-02-28T04:19:16;3.90;99.90
34646;DHT22;20857;47.808;12.482;2024-02-28T04:21:41;4.00;99.90
34646;DHT22;20857;47.808;12.482;2024-02-28T04:24:07;3.90;99.90
34646;DHT22;20857;47.808;12.482;2024-02-28T04:26:35;3.80;99.90
34646;DHT22;20857;47.808;12.482;2024-02-28T04:29:04;3.90;99.90
34646;DHT22;20857;47.808;12.482;2024-02-28T04:31:31;3.90;99.90
34646;DHT22;20857;47.808;12.482;2024-02-28T04:33:57;4.00;99.90
34646;DHT22;20857;47.808;12.482;2024-02-28T04:36:23;4.00;99.90
34646;DHT22;20857;47.808;12.482;2024-02-28T04:38:48;4.10;99.90
34646;DHT22;20857;47.808;12.482;2024-02-28T04:41:14;4.20;99.90
34646;DHT22;20857;47.808;12.482;2024-02-28T04:43:40;4.20;99.90
34646;DHT22;20857;47.808;12.482;2024-02-28T04:46:05;4.20;99.90
34646;DHT22;20857;47.808;12.482;2024-02-28T04:48:31;4.30;99.90
34646;DHT22;20857;47.808;12.482;2024-02-28T04:50:57;4.30;99.90
34646;DHT22;20857;47.808;12.482;2024-02-28T04:53:22;4.30;99.90
34646;DHT22;20857;47.808;12.482;2024-02-28T04:55:48;4.30;99.90
34646;DHT22;20857;47.808;12.482;2024-02-28T04:58:13;4.40;99.90
34646;DHT22;20857;47.808;12.482;2024-02-28T05:00:39;4.40;99.90
34646;DHT22;20857;47.808;12.482;2024-02-28T05:03:05;4.40;99.90
34646;DHT22;20857;47.808;12.482;2024-02-28T05:05:30;4.40;99.90
34646;DHT22;20857;47.808;12.482;2024-02-28T05:07:56;4.40;99.90
34646;DHT22;20857;47.808;12.482;2024-02-28T05:10:21;4.40;99.90
34646;DHT22;20857;47.808;12.482;2024-02-28T05:12:47;4.40;99.90
34646;DHT22;20857;47.808;12.482;2024-02-28T05:15:12;4.40;99.90
34646;DHT22;20857;47.808;12.482;2024-02-28T05:17:38;4.40;99.90
34646;DHT22;20857;47.808;12.482;2024-02-28T05:20:05;4.40;99.90
34646;DHT22;20857;47.808;12.482;2024-02-28T05:22:30;4.40;99.90
34646;DHT22;20857;47.808;12.482;2024-02-28T05:24:56;4.40;99.90
34646;DHT22;20857;47.808;12.482;2024-02-28T05:27:21;4.40;99.90
34646;DHT22;20857;47.808;12.482;2024-02-28T05:29:47;4.30;99.90
34646;DHT22;20857;47.808;12.482;2024-02-28T05:32:13;4.30;99.90
34646;DHT22;20857;47.808;12.482;2024-02-28T05:34:39;4.40;99.90
34646;DHT22;20857;47.808;12.482;2024-02-28T05:37:04;4.40;99.90
34646;DHT22;20857;47.808;12.482;2024-02-28T05:39:30;4.40;99.90
34646;DHT22;20857;47.808;12.482;2024-02-28T05:41:56;4.40;99.90
34646;DHT22;20857;47.808;12.482;2024-02-28T05:44:22;4.50;99.90
34646;DHT22;20857;47.808;12.482;2024-02-28T05:46:49;4.50;99.90
34646;DHT22;20857;47.808;12.482;2024-02-28T05:49:15;4.40;99.90
34646;DHT22;20857;47.808;12.482;2024-02-28T05:51:41;4.40;99.90
34646;DHT22;20857;47.808;12.482;2024-02-28T05:54:06;4.40;99.90
34646;DHT22;20857;47.808;12.482;2024-02-28T05:56:32;4.40;99.90
34646;DHT22;20857;47.808;12.482;2024-02-28T05:58:57;4.40;99.90
34646;DHT22;20857;47.808;12.482;2024-02-28T06:01:23;4.40;99.90
34646;DHT22;20857;47.808;12.482;2024-02-28T06:03:49;4.60;99.90
34646;DHT22;20857;47.808;12.482;2024-02-28T06:06:14;4.50;99.90
34646;DHT22;20857;47.808;12.482;2024-02-28T06:08:41;4.50;99.90
34646;DHT22;20857;47.808;12.482;2024-02-28T06:11:07;4.50;99.90
34646;DHT22;20857;47.808;12.482;2024-02-28T06:13:33;4.50;99.90
34646;DHT22;20857;47.808;12.482;2024-02-28T06:15:58;4.50;99.90
34646;DHT22;20857;47.808;12.482;2024-02-28T06:18:26;4.50;99.90
34646;DHT22;20857;47.808;12.482;2024-02-28T06:20:56;4.50;99.90
34646;DHT22;20857;47.808;12.482;2024-02-28T06:23:22;4.50;99.90
34646;DHT22;20857;47.808;12.482;2024-02-28T06:25:48;4.50;99.90
34646;DHT22;20857;47.808;12.482;2024-02-28T06:28:13;4.70;99.90
34646;DHT22;20857;47.808;12.482;2024-02-28T06:30:39;4.70;99.90
34646;DHT22;20857;47.808;12.482;2024-02-28T06:33:05;4.70;99.90
34646;DHT22;20857;47.808;12.482;2024-02-28T06:35:31;4.80;99.90
34646;DHT22;20857;47.808;12.482;2024-02-28T06:37:57;4.80;99.90
34646;DHT22;20857;47.808;12.482;2024-02-28T06:40:22;4.80;99.90
34646;DHT22;20857;47.808;12.482;2024-02-28T06:42:48;4.80;99.90
34646;DHT22;20857;47.808;12.482;2024-02-28T06:45:13;4.90;99.90
34646;DHT22;20857;47.808;12.482;2024-02-28T06:47:39;4.80;99.90
34646;DHT22;20857;47.808;12.482;2024-02-28T06:50:06;4.70;99.90
34646;DHT22;20857;47.808;12.482;2024-02-28T06:52:32;4.70;99.90
34646;DHT22;20857;47.808;12.482;2024-02-28T06:54:57;4.80;99.90
34646;DHT22;20857;47.808;12.482;2024-02-28T06:57:25;4.70;99.90
34646;DHT22;20857;47.808;12.482;2024-02-28T06:59:50;4.60;99.90
34646;DHT22;20857;47.808;12.482;2024-02-28T07:02:16;4.60;99.90
34646;DHT22;20857;47.808;12.482;2024-02-28T07:04:42;4.60;99.90
34646;DHT22;20857;47.808;12.482;2024-02-28T07:07:08;4.80;99.90
34646;DHT22;20857;47.808;12.482;2024-02-28T07:09:34;4.90;99.90
34646;DHT22;20857;47.808;12.482;2024-02-28T07:12:00;4.80;99.90
34646;DHT22;20857;47.808;12.482;2024-02-28T07:14:26;4.80;99.90
34646;DHT22;20857;47.808;12.482;2024-02-28T07:16:52;4.80;99.90
34646;DHT22;20857;47.808;12.482;2024-02-28T07:19:18;4.80;99.90
34646;DHT22;20857;47.808;12.482;2024-02-28T07:21:44;4.80;99.90
34646;DHT22;20857;47.808;12.482;2024-02-28T07:24:10;4.80;99.90
34646;DHT22;20857;47.808;12.482;2024-02-28T07:26:35;4.80;99.90
34646;DHT22;20857;47.808;12.482;2024-02-28T07:29:01;4.90;99.90
34646;DHT22;20857;47.808;12.482;2024-02-28T07:31:27;4.90;99.90
34646;DHT22;20857;47.808;12.482;2024-02-28T07:33:52;5.00;99.90
34646;DHT22;20857;47.808;12.482;2024-02-28T07:36:18;5.00;99.90
34646;DHT22;20857;47.808;12.482;2024-02-28T07:38:44;5.00;99.90
34646;DHT22;20857;47.808;12.482;2024-02-28T07:41:10;5.10;99.90
34646;DHT22;20857;47.808;12.482;2024-02-28T07:43:35;5.20;99.90
34646;DHT22;20857;47.808;12.482;2024-02-28T07:46:07;5.20;99.90
34646;DHT22;20857;47.808;12.482;2024-02-28T07:48:34;5.20;99.90
34646;DHT22;20857;47.808;12.482;2024-02-28T07:50:59;5.30;99.90
34646;DHT22;20857;47.808;12.482;2024-02-28T07:53:26;5.30;99.90
34646;DHT22;20857;47.808;12.482;2024-02-28T07:55:51;5.40;99.90
34646;DHT22;20857;47.808;12.482;2024-02-28T07:58:17;5.50;99.90
34646;DHT22;20857;47.808;12.482;2024-02-28T08:00:43;5.70;99.90
34646;DHT22;20857;47.808;12.482;2024-02-28T08:03:09;5.80;99.90
34646;DHT22;20857;47.808;12.482;2024-02-28T08:05:35;5.70;99.90
34646;DHT22;20857;47.808;12.482;2024-02-28T08:08:05;5.80;99.90
34646;DHT22;20857;47.808;12.482;2024-02-28T08:10:31;5.80;99.90
34646;DHT22;20857;47.808;12.482;2024-02-28T08:12:57;5.80;99.90
34646;DHT22;20857;47.808;12.482;2024-02-28T08:15:23;5.90;99.90
34646;DHT22;20857;47.808;12.482;2024-02-28T08:17:49;5.90;99.90
34646;DHT22;20857;47.808;12.482;2024-02-28T08:20:14;6.00;99.90
34646;DHT22;20857;47.808;12.482;2024-02-28T08:22:40;6.00;99.90
34646;DHT22;20857;47.808;12.482;2024-02-28T08:25:06;6.00;99.90
34646;DHT22;20857;47.808;12.482;2024-02-28T08:27:32;6.10;99.90
34646;DHT22;20857;47.808;12.482;2024-02-28T08:30:00;6.20;99.90
34646;DHT22;20857;47.808;12.482;2024-02-28T08:32:25;6.10;99.90
34646;DHT22;20857;47.808;12.482;2024-02-28T08:34:51;6.10;99.90
34646;DHT22;20857;47.808;12.482;2024-02-28T08:37:18;6.10;99.90
34646;DHT22;20857;47.808;12.482;2024-02-28T08:39:44;6.10;99.90
34646;DHT22;20857;47.808;12.482;2024-02-28T08:42:10;6.10;99.90
34646;DHT22;20857;47.808;12.482;2024-02-28T08:44:35;6.20;99.90
34646;DHT22;20857;47.808;12.482;2024-02-28T08:47:02;6.30;99.90
34646;DHT22;20857;47.808;12.482;2024-02-28T08:49:28;6.20;99.90
34646;DHT22;20857;47.808;12.482;2024-02-28T08:51:53;6.30;99.90
34646;DHT22;20857;47.808;12.482;2024-02-28T08:54:19;6.30;99.90
34646;DHT22;20857;47.808;12.482;2024-02-28T08:56:44;6.30;99.90
34646;DHT22;20857;47.808;12.482;2024-02-28T08:59:10;6.40;99.90
34646;DHT22;20857;47.808;12.482;2024-02-28T09:01:36;6.40;99.90
34646;DHT22;20857;47.808;12.482;2024-02-28T09:04:02;6.40;99.90
34646;DHT22;20857;47.808;12.482;2024-02-28T09:06:30;6.40;99.90
34646;DHT22;20857;47.808;12.482;2024-02-28T09:08:56;6.40;99.90
34646;DHT22;20857;47.808;12.482;2024-02-28T09:11:21;6.60;99.90
34646;DHT22;20857;47.808;12.482;2024-02-28T09:13:49;6.60;99.90
34646;DHT22;20857;47.808;12.482;2024-02-28T09:16:14;6.60;99.90
34646;DHT22;20857;47.808;12.482;2024-02-28T09:18:40;6.70;99.90
34646;DHT22;20857;47.808;12.482;2024-02-28T09:21:08;6.70;99.90
34646;DHT22;20857;47.808;12.482;2024-02-28T09:23:34;6.70;99.90
34646;DHT22;20857;47.808;12.482;2024-02-28T09:26:06;6.50;99.90
34646;DHT22;20857;47.808;12.482;2024-02-28T09:28:32;6.30;99.90
34646;DHT22;20857;47.808;12.482;2024-02-28T09:30:59;6.30;99.90
34646;DHT22;20857;47.808;12.482;2024-02-28T09:33:24;6.20;99.90
34646;DHT22;20857;47.808;12.482;2024-02-28T09:35:50;6.20;99.90
34646;DHT22;20857;47.808;12.482;2024-02-28T09:38:16;6.20;99.90
34646;DHT22;20857;47.808;12.482;2024-02-28T09:40:42;6.20;99.90
34646;DHT22;20857;47.808;12.482;2024-02-28T09:43:27;6.30;99.90
34646;DHT22;20857;47.808;12.482;2024-02-28T09:46:03;6.20;99.90
34646;DHT22;20857;47.808;12.482;2024-02-28T09:48:31;6.20;99.90
34646;DHT22;20857;47.808;12.482;2024-02-28T09:50:58;6.30;99.90
34646;DHT22;20857;47.808;12.482;2024-02-28T09:53:24;6.40;99.90
34646;DHT22;20857;47.808;12.482;2024-02-28T09:55:50;6.30;99.90
34646;DHT22;20857;47.808;12.482;2024-02-28T09:58:19;6.40;99.90
34646;DHT22;20857;47.808;12.482;2024-02-28T10:00:48;6.40;99.90
34646;DHT22;20857;47.808;12.482;2024-02-28T10:03:17;6.50;99.90
34646;DHT22;20857;47.808;12.482;2024-02-28T10:05:49;6.50;99.90
34646;DHT22;20857;47.808;12.482;2024-02-28T10:08:15;6.50;99.90
34646;DHT22;20857;47.808;12.482;2024-02-28T10:10:47;6.60;99.90
34646;DHT22;20857;47.808;12.482;2024-02-28T10:13:16;6.70;99.90
34646;DHT22;20857;47.808;12.482;2024-02-28T10:15:42;6.80;99.90
34646;DHT22;20857;47.808;12.482;2024-02-28T10:18:08;6.90;99.90
34646;DHT22;20857;47.808;12.482;2024-02-28T10:20:34;7.00;99.90
34646;DHT22;20857;47.808;12.482;2024-02-28T10:23:03;7.00;99.90
34646;DHT22;20857;47.808;12.482;2024-02-28T10:25:29;7.00;99.90
34646;DHT22;20857;47.808;12.482;2024-02-28T10:28:01;7.00;99.90
34646;DHT22;20857;47.808;12.482;2024-02-28T10:30:27;7.00;99.90
34646;DHT22;20857;47.808;12.482;2024-02-28T10:32:53;7.10;99.90
34646;DHT22;20857;47.808;12.482;2024-02-28T10:35:19;7.30;99.90
34646;DHT22;20857;47.808;12.482;2024-02-28T10:37:46;7.20;99.90
34646;DHT22;20857;47.808;12.482;2024-02-28T10:40:13;7.10;99.90
34646;DHT22;20857;47.808;12.482;2024-02-28T10:42:42;7.10;99.90
34646;DHT22;20857;47.808;12.482;2024-02-28T10:45:09;6.90;99.90
34646;DHT22;20857;47.808;12.482;2024-02-28T10:47:41;6.90;99.90
34646;DHT22;20857;47.808;12.482;2024-02-28T10:50:07;6.60;99.90
34646;DHT22;20857;47.808;12.482;2024-02-28T10:52:34;6.50;99.90
34646;DHT22;20857;47.808;12.482;2024-02-28T10:54:59;6.50;99.90
34646;DHT22;20857;47.808;12.482;2024-02-28T10:57:27;6.40;99.90
34646;DHT22;20857;47.808;12.482;2024-02-28T10:59:55;6.20;99.90
34646;DHT22;20857;47.808;12.482;2024-02-28T11:02:22;6.20;99.90
34646;DHT22;20857;47.808;12.482;2024-02-28T11:04:54;6.40;99.90
34646;DHT22;20857;47.808;12.482;2024-02-28T11:07:20;6.40;99.90
34646;DHT22;20857;47.808;12.482;2024-02-28T11:09:47;6.60;99.90
34646;DHT22;20857;47.808;12.482;2024-02-28T11:12:28;6.50;99.90
34646;DHT22;20857;47.808;12.482;2024-02-28T11:14:58;6.60;99.90
34646;DHT22;20857;47.808;12.482;2024-02-28T11:17:28;6.40;99.90
34646;DHT22;20857;47.808;12.482;2024-02-28T11:19:54;6.40;99.90
34646;DHT22;20857;47.808;12.482;2024-02-28T11:22:20;6.30;99.90
34646;DHT22;20857;47.808;12.482;2024-02-28T11:24:47;6.30;99.90
34646;DHT22;20857;47.808;12.482;2024-02-28T11:27:13;6.30;99.90
34646;DHT22;20857;47.808;12.482;2024-02-28T11:29:41;6.40;99.90
34646;DHT22;20857;47.808;12.482;2024-02-28T11:32:07;6.40;99.90
34646;DHT22;20857;47.808;12.482;2024-02-28T11:34:36;6.30;99.90
34646;DHT22;20857;47.808;12.482;2024-02-28T11:37:03;6.50;99.90
34646;DHT22;20857;47.808;12.482;2024-02-28T11:39:29;6.40;99.90
34646;DHT22;20857;47.808;12.482;2024-02-28T11:42:11;6.40;99.90
34646;DHT22;20857;47.808;12.482;2024-02-28T11:44:38;6.40;99.90
34646;DHT22;20857;47.808;12.482;2024-02-28T11:47:04;6.60;99.90
34646;DHT22;20857;47.808;12.482;2024-02-28T11:49:32;6.60;99.90
34646;DHT22;20857;47.808;12.482;2024-02-28T11:51:58;6.70;99.90
34646;DHT22;20857;47.808;12.482;2024-02-28T11:54:24;6.80;99.90
34646;DHT22;20857;47.808;12.482;2024-02-28T11:56:51;6.90;99.90
34646;DHT22;20857;47.808;12.482;2024-02-28T11:59:18;6.90;99.90
34646;DHT22;20857;47.808;12.482;2024-02-28T12:01:44;6.90;99.90
34646;DHT22;20857;47.808;12.482;2024-02-28T12:04:12;6.90;99.90
34646;DHT22;20857;47.808;12.482;2024-02-28T12:06:40;7.10;99.90
34646;DHT22;20857;47.808;12.482;2024-02-28T12:09:13;6.90;99.90
34646;DHT22;20857;47.808;12.482;2024-02-28T12:11:43;6.80;99.90
34646;DHT22;20857;47.808;12.482;2024-02-28T12:14:10;6.70;99.90
34646;DHT22;20857;47.808;12.482;2024-02-28T12:16:39;7.00;99.90
34646;DHT22;20857;47.808;12.482;2024-02-28T12:19:12;6.70;99.90
34646;DHT22;20857;47.808;12.482;2024-02-28T12:21:43;6.80;99.90
34646;DHT22;20857;47.808;12.482;2024-02-28T12:24:09;6.60;99.90
34646;DHT22;20857;47.808;12.482;2024-02-28T12:26:36;6.80;99.90
34646;DHT22;20857;47.808;12.482;2024-02-28T12:29:03;6.60;99.90
34646;DHT22;20857;47.808;12.482;2024-02-28T12:31:29;6.80;99.90
34646;DHT22;20857;47.808;12.482;2024-02-28T12:33:55;6.80;99.90
34646;DHT22;20857;47.808;12.482;2024-02-28T12:36:21;6.80;99.90
34646;DHT22;20857;47.808;12.482;2024-02-28T12:38:47;6.90;99.90
34646;DHT22;20857;47.808;12.482;2024-02-28T12:41:13;7.00;99.90
34646;DHT22;20857;47.808;12.482;2024-02-28T12:43:39;7.10;99.90
34646;DHT22;20857;47.808;12.482;2024-02-28T12:46:05;6.90;99.90
34646;DHT22;20857;47.808;12.482;2024-02-28T12:48:36;7.00;99.90
34646;DHT22;20857;47.808;12.482;2024-02-28T12:51:02;7.00;99.90
34646;DHT22;20857;47.808;12.482;2024-02-28T12:53:28;7.00;99.90
34646;DHT22;20857;47.808;12.482;2024-02-28T12:55:53;7.00;99.90
34646;DHT22;20857;47.808;12.482;2024-02-28T12:58:19;7.00;99.90
34646;DHT22;20857;47.808;12.482;2024-02-28T13:00:44;7.10;99.90
34646;DHT22;20857;47.808;12.482;2024-02-28T13:03:10;6.90;99.90
34646;DHT22;20857;47.808;12.482;2024-02-28T13:05:37;7.00;99.90
34646;DHT22;20857;47.808;12.482;2024-02-28T13:08:03;6.90;99.90
34646;DHT22;20857;47.808;12.482;2024-02-28T13:10:29;6.90;99.90
34646;DHT22;20857;47.808;12.482;2024-02-28T13:12:55;6.80;99.90
34646;DHT22;20857;47.808;12.482;2024-02-28T13:15:21;6.70;99.90
34646;DHT22;20857;47.808;12.482;2024-02-28T13:17:47;6.90;99.90
34646;DHT22;20857;47.808;12.482;2024-02-28T13:20:15;6.80;99.90
34646;DHT22;20857;47.808;12.482;2024-02-28T13:22:40;6.80;99.90
34646;DHT22;20857;47.808;12.482;2024-02-28T13:25:06;6.70;99.90
34646;DHT22;20857;47.808;12.482;2024-02-28T13:27:32;6.70;99.90
34646;DHT22;20857;47.808;12.482;2024-02-28T13:29:57;6.60;99.90
34646;DHT22;20857;47.808;12.482;2024-02-28T13:32:23;6.60;99.90
34646;DHT22;20857;47.808;12.482;2024-02-28T13:34:49;6.70;99.90
34646;DHT22;20857;47.808;12.482;2024-02-28T13:37:14;6.90;99.90
34646;DHT22;20857;47.808;12.482;2024-02-28T13:39:40;6.80;99.90
34646;DHT22;20857;47.808;12.482;2024-02-28T13:42:06;6.80;99.90
34646;DHT22;20857;47.808;12.482;2024-02-28T13:44:34;6.80;99.90
34646;DHT22;20857;47.808;12.482;2024-02-28T13:47:01;7.00;99.90
34646;DHT22;20857;47.808;12.482;2024-02-28T13:49:28;6.90;99.90
34646;DHT22;20857;47.808;12.482;2024-02-28T13:51:54;6.90;99.90
34646;DHT22;20857;47.808;12.482;2024-02-28T13:54:19;6.90;99.90
34646;DHT22;20857;47.808;12.482;2024-02-28T13:56:45;7.10;99.90
34646;DHT22;20857;47.808;12.482;2024-02-28T13:59:10;7.10;99.90
34646;DHT22;20857;47.808;12.482;2024-02-28T14:01:36;7.10;99.90
34646;DHT22;20857;47.808;12.482;2024-02-28T14:04:02;7.10;99.90
34646;DHT22;20857;47.808;12.482;2024-02-28T14:06:28;7.10;99.90
34646;DHT22;20857;47.808;12.482;2024-02-28T14:08:54;7.10;99.90
34646;DHT22;20857;47.808;12.482;2024-02-28T14:11:20;7.10;99.90
34646;DHT22;20857;47.808;12.482;2024-02-28T14:13:45;7.00;99.90
34646;DHT22;20857;47.808;12.482;2024-02-28T14:16:12;6.90;99.90
34646;DHT22;20857;47.808;12.482;2024-02-28T14:18:37;6.80;99.90
34646;DHT22;20857;47.808;12.482;2024-02-28T14:21:03;6.80;99.90
34646;DHT22;20857;47.808;12.482;2024-02-28T14:23:29;6.80;99.90
34646;DHT22;20857;47.808;12.482;2024-02-28T14:25:56;6.70;99.90
34646;DHT22;20857;47.808;12.482;2024-02-28T14:28:22;6.80;99.90
34646;DHT22;20857;47.808;12.482;2024-02-28T14:30:47;6.70;99.90
34646;DHT22;20857;47.808;12.482;2024-02-28T14:33:14;6.60;99.90
34646;DHT22;20857;47.808;12.482;2024-02-28T14:35:40;6.70;99.90
34646;DHT22;20857;47.808;12.482;2024-02-28T14:38:06;6.60;99.90
34646;DHT22;20857;47.808;12.482;2024-02-28T14:40:32;6.60;99.90
34646;DHT22;20857;47.808;12.482;2024-02-28T14:42:58;6.60;99.90
34646;DHT22;20857;47.808;12.482;2024-02-28T14:45:24;6.50;99.90
34646;DHT22;20857;47.808;12.482;2024-02-28T14:47:53;6.50;99.90
34646;DHT22;20857;47.808;12.482;2024-02-28T14:50:19;6.50;99.90
34646;DHT22;20857;47.808;12.482;2024-02-28T14:52:46;6.50;99.90
34646;DHT22;20857;47.808;12.482;2024-02-28T14:55:11;6.40;99.90
34646;DHT22;20857;47.808;12.482;2024-02-28T14:57:37;6.40;99.90
34646;DHT22;20857;47.808;12.482;2024-02-28T15:00:05;6.50;99.90
34646;DHT22;20857;47.808;12.482;2024-02-28T15:02:36;6.50;99.90
34646;DHT22;20857;47.808;12.482;2024-02-28T15:05:01;6.60;99.90
34646;DHT22;20857;47.808;12.482;2024-02-28T15:07:34;6.60;99.90
34646;DHT22;20857;47.808;12.482;2024-02-28T15:10:03;6.50;99.90
34646;DHT22;20857;47.808;12.482;2024-02-28T15:12:30;6.60;99.90
34646;DHT22;20857;47.808;12.482;2024-02-28T15:15:01;6.70;99.90
34646;DHT22;20857;47.808;12.482;2024-02-28T15:17:30;6.70;99.90
34646;DHT22;20857;47.808;12.482;2024-02-28T15:19:56;6.70;99.90
34646;DHT22;20857;47.808;12.482;2024-02-28T15:22:22;6.80;99.90
34646;DHT22;20857;47.808;12.482;2024-02-28T15:24:48;6.80;99.90